Flight Track Log - Related Links

Times and Time Zones

All times are in EDT time to prevent confusion due to time zone crossing. See the XOJ547 flight status page for this flight to view local times or setup timezone preferences in your user account.

Time Position Orientation Groundspeed Altitude Reporting Facility
EDT Latitude Longitude Course Direction KTS MPH feet Rate Location/Type
Thu 06:26:43 PM 30.1083 -97.6064 90° East 221 254 6,600  Level Houston Center
Thu 06:27:45 PM 30.1292 -97.5228 74° East 262 302 9,700 3,290 Climbing Houston Center
Thu 06:28:47 PM 30.1753 -97.4381 58° Northeast 300 345 13,400 3,581 Climbing Houston Center
Thu 06:29:49 PM 30.2181 -97.3494 61° Northeast 314 361 17,100 3,048 Climbing Houston Center
Thu 06:30:51 PM 30.2636 -97.2597 60° Northeast 320 368 19,700 2,468 Climbing Houston Center
Thu 06:31:00 PM 30.3333 -96.9344 90° East  Level FlightAware Approximate
Thu 06:31:53 PM 30.3122 -97.1614 60° Northeast 339 390 22,200  Level Houston Center
Thu 06:32:00 PM 30.3333 -96.7932 90° East  Level FlightAware Approximate
Thu 06:32:56 PM 30.3467 -97.0247 74° East 389 448 24,300  Level Houston Center
Thu 06:33:58 PM 30.3400 -96.8950 93° East 401 461 26,600 2,274 Climbing Houston Center
Thu 06:35:00 PM 30.3325 -96.7642 94° East 406 467 29,000 2,177 Climbing Houston Center
Thu 06:36:02 PM 30.3242 -96.6328 94° East 406 467 31,100 1,887 Climbing Houston Center
Thu 06:37:04 PM 30.3156 -96.4972 94° East 415 478 32,900 1,548 Climbing Houston Center
Thu 06:38:06 PM 30.3069 -96.3567 94° East 428 493 34,300 1,403 Climbing Houston Center
Thu 06:39:08 PM 30.2947 -96.1842 95° East 452 520 35,800 1,355 Climbing Houston Center
Thu 06:40:10 PM 30.3183 -96.0281 80° East 471 542 37,100 1,306 Climbing Houston Center
Thu 06:41:12 PM 30.3947 -95.9017 55° Northeast 477 549 38,500 1,355 Climbing Houston Center
Thu 06:42:14 PM 30.4747 -95.7783 53° Northeast 473 544 39,900 1,152 Climbing Houston Center
Thu 06:43:17 PM 30.5533 -95.6589 53° Northeast 470 541 40,900 528 Climbing Houston Center
Thu 06:44:19 PM 30.6336 -95.5369 53° Northeast 471 542 41,000 48 Climbing Houston Center
Thu 06:45:21 PM 30.7094 -95.4172 54° Northeast 471 542 41,000  Level Houston Center
Thu 06:46:23 PM 30.8069 -95.2708 52° Northeast 477 549 41,000  Level Houston Center
Thu 06:47:25 PM 30.8869 -95.1458 53° Northeast 477 549 41,000  Level Houston Center
Thu 06:48:27 PM 30.9678 -95.0214 53° Northeast 481 554 41,000  Level Houston Center
Thu 06:49:29 PM 31.0458 -94.8983 53° Northeast 462 532 41,000  Level Houston Center
Thu 06:50:31 PM 31.1197 -94.7753 55° Northeast 456 525 41,000  Level Houston Center
Thu 06:51:33 PM 31.1992 -94.6283 58° Northeast 484 557 41,000  Level Houston Center
Thu 06:52:35 PM 31.2600 -94.4758 65° Northeast 478 550 41,000  Level Houston Center
Thu 06:53:37 PM 31.3178 -94.3372 64° Northeast 479 551 41,000  Level Houston Center
Thu 06:54:39 PM 31.3753 -94.1961 64° Northeast 483 556 41,000  Level Houston Center
Thu 06:55:41 PM 31.4325 -94.0533 65° Northeast 485 558 41,000  Level Houston Center
Thu 06:56:19 PM 31.4767 -93.9383 66° East 486 559 41,000  Level Houston Center
Thu 06:57:21 PM 31.5281 -93.7906 68° East 490 564 41,000  Level Houston Center
Thu 06:58:23 PM 31.5792 -93.6425 68° East 491 565 41,000  Level Houston Center
Thu 06:59:25 PM 31.6328 -93.4872 68° East 486 559 41,000  Level Houston Center
Thu 07:00:27 PM 31.6839 -93.3389 68° East 489 563 41,000  Level Houston Center
Thu 07:01:29 PM 31.7392 -93.1775 68° East 493 567 41,000  Level Houston Center
Thu 07:02:31 PM 31.7900 -93.0267 68° East 495 570 41,000  Level Houston Center
Thu 07:03:33 PM 31.8406 -92.8769 68° East 495 570 41,000  Level Houston Center
Thu 07:05:00 PM 31.9119 -92.6656 68° East 496 571 41,000  Level Houston Center
Thu 07:06:02 PM 31.9617 -92.5150 69° East 494 568 41,000  Level Houston Center
Thu 07:07:04 PM 32.0119 -92.3639 69° East 496 571 41,000  Level Houston Center
Thu 07:08:06 PM 32.0722 -92.1831 68° East 494 568 41,000  Level Houston Center
Thu 07:09:08 PM 32.1219 -92.0322 69° East 494 568 41,000  Level Houston Center
Thu 07:10:10 PM 32.1672 -91.8856 70° East 494 568 41,000  Level Houston Center
Thu 07:11:12 PM 32.2167 -91.7358 69° East 491 565 41,000  Level Houston Center
Thu 07:12:14 PM 32.2742 -91.5569 69° East 487 560 41,000  Level Houston Center
Thu 07:13:16 PM 32.3231 -91.4056 69° East 490 564 41,000  Level Houston Center
Thu 07:14:18 PM 32.3711 -91.2569 69° East 487 560 41,000  Level Houston Center
Thu 07:15:20 PM 32.4181 -91.1064 70° East 488 562 41,000  Level Houston Center
Thu 07:16:22 PM 32.4661 -90.9558 69° East 489 563 41,000  Level Houston Center
Thu 07:17:24 PM 32.5144 -90.8053 69° East 489 563 41,000  Level Houston Center
Thu 07:18:26 PM 32.5697 -90.6292 70° East 490 564 41,000  Level Houston Center
Thu 07:19:28 PM 32.6167 -90.4778 70° East 489 563 41,000  Level Houston Center
Thu 07:20:30 PM 32.6642 -90.3258 70° East 491 565 41,000  Level Houston Center
Thu 07:21:32 PM 32.7114 -90.1742 70° East 490 564 41,000  Level Houston Center
Thu 07:22:34 PM 32.7569 -90.0281 70° East 492 566 41,000  Level Houston Center
Thu 07:23:31 PM 32.8044 -89.8556 72° East 486 559 41,000  Level Memphis Center
Thu 07:24:31 PM 32.8497 -89.6944 71° East 500 575 41,000  Level Memphis Center
Thu 07:25:31 PM 32.9031 -89.5458 67° East 500 575 41,000  Level Memphis Center
Thu 07:26:31 PM 32.9500 -89.3942 70° East 489 563 41,000  Level Memphis Center
Thu 07:27:31 PM 32.9947 -89.2403 71° East 489 563 41,000  Level Memphis Center
Thu 07:28:31 PM 33.0392 -89.1033 69° East 489 563 41,000  Level Memphis Center
Thu 07:29:31 PM 33.0836 -88.9514 71° East 489 563 41,000  Level Memphis Center
Thu 07:30:31 PM 33.1297 -88.7944 71° East 489 563 41,000  Level Memphis Center
Thu 07:31:31 PM 33.1756 -88.6422 70° East 489 563 41,000  Level Memphis Center
Thu 07:32:31 PM 33.2194 -88.4875 71° East 489 563 41,000  Level Memphis Center
Thu 07:33:31 PM 33.2650 -88.3325 71° East 489 563 41,000  Level Memphis Center
Thu 07:35:44 PM 33.3642 -87.9711 72° East 497 572 41,000  Level Atlanta Center
Thu 07:36:44 PM 33.4086 -87.8139 71° East 497 572 41,000  Level Atlanta Center
Thu 07:37:44 PM 33.4550 -87.6589 70° East 492 566 41,000  Level Atlanta Center
Thu 07:38:44 PM 33.4972 -87.5014 72° East 492 566 41,000  Level Atlanta Center
Thu 07:39:44 PM 33.5411 -87.3436 72° East 497 572 41,000  Level Atlanta Center
Thu 07:40:44 PM 33.5850 -87.1856 72° East 497 572 41,000  Level Atlanta Center
Thu 07:41:44 PM 33.6286 -87.0300 71° East 497 572 41,000  Level Atlanta Center
Thu 07:42:44 PM 33.6761 -86.8719 70° East 497 572 41,000  Level Atlanta Center
Thu 07:43:44 PM 33.7192 -86.7161 72° East 492 566 41,000  Level Atlanta Center
Thu 07:44:44 PM 33.7622 -86.5600 72° East 492 566 41,000  Level Atlanta Center
Thu 07:45:44 PM 33.8092 -86.4014 70° East 497 572 41,000  Level Atlanta Center
Thu 07:46:44 PM 33.8539 -86.2425 71° East 497 572 41,000  Level Atlanta Center
Thu 07:47:44 PM 33.8983 -86.0861 71° East 497 572 41,000  Level Atlanta Center
Thu 07:48:44 PM 33.9406 -85.9292 72° East 497 572 41,000  Level Atlanta Center
Thu 07:49:44 PM 33.9842 -85.7975 68° East 490 564 41,000  Level Atlanta Center
Thu 07:50:44 PM 34.0261 -85.6378 72° East 484 557 41,000  Level Atlanta Center
Thu 07:51:44 PM 34.0675 -85.4858 72° East 484 557 41,000  Level Atlanta Center
Thu 07:52:44 PM 34.1131 -85.3258 71° East 484 557 41,000  Level Atlanta Center
Thu 07:53:44 PM 34.1586 -85.1483 73° East 484 557 41,000  Level Atlanta Center
Thu 07:54:44 PM 34.2039 -84.9933 71° East 489 563 41,000  Level Atlanta Center
Thu 07:55:44 PM 34.2489 -84.8356 71° East 489 563 41,000 -200 Level Atlanta Center
Thu 07:56:44 PM 34.2936 -84.6750 71° East 497 572 40,600 -600 Descending Atlanta Center
Thu 07:57:44 PM 34.3403 -84.5142 71° East 497 572 39,800 -800 Descending Atlanta Center
Thu 07:58:44 PM 34.3844 -84.3558 71° East 500 575 39,000 -750 Descending Atlanta Center
Thu 07:59:44 PM 34.4244 -84.2125 71° East 500 575 38,300 -750 Descending Atlanta Center
Thu 08:00:44 PM 34.4683 -84.0514 72° East 500 575 37,500 -800 Descending Atlanta Center
Thu 08:01:44 PM 34.5100 -83.8900 73° East 506 582 36,700 -800 Descending Atlanta Center
Thu 08:02:44 PM 34.5556 -83.7236 72° East 509 586 35,900 -800 Descending Atlanta Center
Thu 08:03:44 PM 34.5989 -83.5619 72° East 509 586 35,100 -850 Descending Atlanta Center
Thu 08:04:44 PM 34.6481 -83.3797 72° East 509 586 34,200 -550 Descending Atlanta Center
Thu 08:05:44 PM 34.6911 -83.2128 73° East 503 579 34,000 -400 Descending Atlanta Center
Thu 08:06:44 PM 34.7378 -83.0481 71° East 518 596 33,400 -650 Descending Atlanta Center
Thu 08:07:44 PM 34.7783 -82.9033 71° East 511 588 32,700 -900 Descending Atlanta Center
Thu 08:08:44 PM 34.8267 -82.7458 69° East 498 573 31,600 -1,850 Descending Atlanta Center
Thu 08:09:44 PM 34.8961 -82.5928 61° Northeast 498 573 29,000 -2,650 Descending Atlanta Center
Thu 08:10:44 PM 34.9653 -82.4497 59° Northeast 493 567 26,300 -1,950 Descending Atlanta Center
Thu 08:11:44 PM 35.0281 -82.3189 60° Northeast 473 544 25,100 -1,150 Descending Atlanta Center
Thu 08:12:44 PM 35.0908 -82.1883 60° Northeast 449 517 24,000 -550 Descending Atlanta Center
Thu 08:13:44 PM 35.1514 -82.0575 60° Northeast 436 502 24,000  Level Atlanta Center
Thu 08:14:44 PM 35.2139 -81.9211 61° Northeast 450 518 24,000 -50 Level Atlanta Center
Thu 08:15:44 PM 35.2822 -81.7769 60° Northeast 450 518 23,900 -400 Descending Atlanta Center
Thu 08:16:44 PM 35.3636 -81.6653 48° Northeast 434 499 23,200 -850 Descending Atlanta Center
Thu 08:17:44 PM 35.4644 -81.5908 31° Northeast 428 493 22,200 -1,050 Descending Atlanta Center
Thu 08:18:44 PM 35.5564 -81.5039 38° Northeast 418 481 21,100 -1,100 Descending Atlanta Center
Thu 08:19:44 PM 35.6294 -81.4019 49° Northeast 403 464 20,000 -1,000 Descending Atlanta Center
Thu 08:20:44 PM 35.6964 -81.3128 47° Northeast 393 452 19,100 -500 Descending Atlanta Center
Thu 08:21:44 PM 35.7669 -81.2081 50° Northeast 393 452 19,000 -200 Descending Atlanta Center
Thu 08:22:44 PM 35.8375 -81.1083 49° Northeast 393 452 18,700 -800 Descending Atlanta Center
Thu 08:23:44 PM 35.9103 -81.0058 49° Northeast 388 447 17,400 -1,600 Descending Atlanta Center
Thu 08:24:44 PM 35.9847 -80.9003 49° Northeast 382 440 15,500 -1,950 Descending Atlanta Center
Thu 08:25:44 PM 36.0511 -80.8078 48° Northeast 365 420 13,500 -1,950 Descending Atlanta Center
Thu 08:26:44 PM 36.1133 -80.7181 49° Northeast 360 414 11,600 -1,250 Descending Atlanta Center
Thu 08:27:44 PM 36.1247 -80.5992 83° East 331 381 11,000 -650 Descending Atlanta Center
Thu 08:28:44 PM 36.1092 -80.4894 100° East 314 361 10,300 -1,300 Descending Atlanta Center
Thu 08:29:44 PM 36.0958 -80.3950 100° East 298 343 8,400 -2,000 Descending Atlanta Center
Thu 08:30:44 PM 36.0872 -80.3081 97° East 287 330 6,300 -2,150 Descending Atlanta Center
Thu 08:31:44 PM 36.0739 -80.2161 100° East 277 319 4,100 -1,650 Descending Atlanta Center
Thu 08:32:44 PM 36.0647 -80.1292 97° East 266 306 3,000 -1,100 Descending Atlanta Center
Thu 08:34:00 PM 36.0486 -79.9514 39° Northeast  Level FlightAware Approximate
Thu 08:41:00 PM 36.1000 -79.9333 15° North  Level FlightAware Approximate
Thu 08:42:00 PM 36.1013 -79.9411 15° North  Level Estimated
Thu 08:43:00 PM 36.1000 -79.9333 15° North  Level FlightAware Approximate
Thu 08:44:00 PM 36.1013 -79.9411 15° North  Level Estimated

Login

Don't have an account? Register now (free) for customized features, flight alerts, and more!